Time;durP1;ratioP1;P1;durP2;ratioP2;P2;SDS_P1;SDS_P2;PMS_P1;PMS_P2;Temp;Humidity;BMP_temperature;BMP_pressure;BME280_temperature;BME280_humidity;BME280_pressure;Samples;Min_cycle;Max_cycle;Signal;HPM_P1;HPM_P2
2023/07/19 00:00:24;;;;;;;11.40;6.60;;;;;;;28.56;54.66;98840.75;5015165;28;20179;-88
2023/07/19 00:02:51;;;;;;;7.88;5.78;;;;;;;28.62;53.79;98831.03;4997827;28;20179;-88
2023/07/19 00:05:17;;;;;;;10.50;6.97;;;;;;;28.69;53.17;98831.91;5015446;28;20175;-88
2023/07/19 00:07:43;;;;;;;10.30;6.47;;;;;;;28.76;52.92;98834.63;4997844;28;20203;-88
2023/07/19 00:10:08;;;;;;;11.63;6.50;;;;;;;28.78;52.65;98835.25;5014919;28;20176;-88
2023/07/19 00:12:34;;;;;;;9.88;6.18;;;;;;;28.75;52.32;98841.06;5014857;28;20199;-88
2023/07/19 00:14:59;;;;;;;10.73;5.53;;;;;;;28.73;51.79;98840.41;5014602;28;20179;-88
2023/07/19 00:17:26;;;;;;;8.95;5.32;;;;;;;28.60;51.64;98836.63;5015235;28;20629;-88
2023/07/19 00:19:52;;;;;;;10.00;5.68;;;;;;;28.44;52.46;98834.28;5014780;28;20277;-88
2023/07/19 00:22:18;;;;;;;15.50;5.65;;;;;;;28.35;52.91;98831.97;5015411;28;20194;-88
2023/07/19 00:24:43;;;;;;;8.32;5.40;;;;;;;28.30;52.61;98834.44;5014804;28;20167;-88
2023/07/19 00:27:10;;;;;;;9.38;5.50;;;;;;;28.24;52.95;98833.38;5014600;28;20199;-88
2023/07/19 00:29:36;;;;;;;8.93;6.00;;;;;;;28.34;52.58;98830.28;5014968;28;20266;-88
2023/07/19 00:32:03;;;;;;;9.23;5.80;;;;;;;28.42;51.86;98828.25;5014570;28;20206;-87
2023/07/19 00:34:30;;;;;;;9.85;6.00;;;;;;;28.43;52.22;98821.00;5014693;28;20185;-88
2023/07/19 00:36:57;;;;;;;11.15;6.57;;;;;;;28.39;52.23;98820.56;5014502;28;20206;-88
2023/07/19 00:39:22;;;;;;;11.27;6.60;;;;;;;28.31;52.52;98815.34;5014525;28;20175;-88
2023/07/19 00:41:48;;;;;;;10.25;6.53;;;;;;;28.24;52.77;98824.44;5014463;28;20171;-87
2023/07/19 00:44:13;;;;;;;10.57;5.35;;;;;;;28.09;53.63;98816.50;5014469;28;20677;-88
2023/07/19 00:46:40;;;;;;;8.73;5.75;;;;;;;28.10;52.98;98815.47;5013455;28;20178;-87
2023/07/19 00:49:06;;;;;;;10.23;5.55;;;;;;;28.14;52.72;98815.91;4996969;28;20637;-88
2023/07/19 00:51:32;;;;;;;11.13;5.60;;;;;;;28.14;51.75;98819.44;5013797;28;20183;-88
2023/07/19 00:53:58;;;;;;;11.45;5.90;;;;;;;28.09;52.02;98818.38;5014272;28;20263;-88
2023/07/19 00:56:27;;;;;;;7.38;4.90;;;;;;;27.97;52.08;98826.13;5014225;28;20536;-88
2023/07/19 00:58:54;;;;;;;10.95;5.00;;;;;;;27.91;51.77;98827.75;5014133;28;20262;-88
2023/07/19 01:01:22;;;;;;;7.15;4.38;;;;;;;27.93;51.50;98830.28;5014161;28;20179;-87
2023/07/19 01:03:49;;;;;;;9.15;4.65;;;;;;;27.91;52.03;98833.16;5008654;28;20171;-88
2023/07/19 01:06:18;;;;;;;8.80;4.63;;;;;;;27.94;52.57;98837.31;4994781;28;20172;-88
2023/07/19 01:08:43;;;;;;;8.07;5.00;;;;;;;28.05;52.05;98831.41;4994521;28;20206;-88
2023/07/19 01:11:09;;;;;;;12.35;5.90;;;;;;;28.05;51.29;98834.09;4994960;28;20175;-87
2023/07/19 01:13:34;;;;;;;6.88;4.45;;;;;;;27.93;52.13;98833.81;5008357;28;20573;-88
2023/07/19 01:16:00;;;;;;;9.60;4.53;;;;;;;27.83;51.90;98835.19;5013895;28;20171;-88
2023/07/19 01:18:27;;;;;;;8.20;5.75;;;;;;;27.74;52.82;98831.81;5013933;28;20332;-88
2023/07/19 01:20:53;;;;;;;11.43;6.00;;;;;;;27.72;53.12;98833.03;4996174;28;20210;-88
2023/07/19 01:23:18;;;;;;;8.82;5.50;;;;;;;27.74;53.38;98831.81;5013706;28;20183;-88
2023/07/19 01:25:45;;;;;;;9.38;6.35;;;;;;;27.69;54.06;98828.03;5013768;28;20270;-88
2023/07/19 01:28:12;;;;;;;10.48;7.15;;;;;;;27.74;54.41;98825.59;5012719;28;20202;-88
2023/07/19 01:30:39;;;;;;;10.73;7.10;;;;;;;27.68;54.45;98823.66;5013652;28;20674;-88
2023/07/19 01:33:04;;;;;;;10.98;7.18;;;;;;;27.62;54.81;98816.41;5014282;28;20210;-88
2023/07/19 01:35:31;;;;;;;14.60;7.70;;;;;;;27.57;55.26;98814.28;5013667;28;20272;-88
2023/07/19 01:37:56;;;;;;;9.98;5.88;;;;;;;27.55;55.12;98824.41;5013920;28;20179;-88
2023/07/19 01:40:22;;;;;;;13.88;6.57;;;;;;;27.37;55.23;98829.41;5013558;28;20236;-88
2023/07/19 01:42:47;;;;;;;10.82;6.53;;;;;;;27.33;55.58;98826.28;5013182;28;20183;-88
2023/07/19 01:45:13;;;;;;;12.80;7.20;;;;;;;27.25;55.99;98820.22;5013506;28;20179;-88
2023/07/19 01:47:40;;;;;;;11.30;5.93;;;;;;;27.19;55.32;98824.50;5013506;28;20194;-88
2023/07/19 01:50:07;;;;;;;8.52;6.13;;;;;;;27.03;55.95;98830.16;5013454;28;20203;-88
2023/07/19 01:52:32;;;;;;;10.93;6.22;;;;;;;26.92;56.43;98829.81;5013934;28;20258;-88
2023/07/19 01:54:58;;;;;;;9.40;5.78;;;;;;;26.90;55.79;98830.03;5013971;28;20183;-88
2023/07/19 01:57:24;;;;;;;8.90;5.45;;;;;;;26.88;55.45;98826.69;5013307;28;20266;-88
2023/07/19 01:59:51;;;;;;;10.32;6.55;;;;;;;26.92;55.28;98838.72;5013091;28;20206;-88
2023/07/19 02:02:17;;;;;;;10.13;6.65;;;;;;;26.97;55.94;98838.97;5013372;28;20175;-88
2023/07/19 02:04:42;;;;;;;11.75;6.85;;;;;;;26.97;56.13;98838.97;5013924;28;20190;-88
2023/07/19 02:07:09;;;;;;;11.50;6.65;;;;;;;26.99;56.31;98839.63;5013285;28;20222;-88
2023/07/19 02:09:34;;;;;;;10.98;6.32;;;;;;;27.00;57.03;98835.06;5013552;28;20205;-88
2023/07/19 02:12:00;;;;;;;10.15;6.47;;;;;;;26.93;56.96;98829.66;5013535;28;20669;-88
2023/07/19 02:14:25;;;;;;;9.30;6.53;;;;;;;26.88;57.67;98829.38;4996002;28;20519;-88
2023/07/19 02:16:52;;;;;;;10.90;6.95;;;;;;;26.98;57.41;98829.91;5012928;28;20183;-88
2023/07/19 02:19:19;;;;;;;11.48;7.00;;;;;;;27.03;56.79;98838.22;4999865;28;20232;-88
2023/07/19 02:21:46;;;;;;;9.95;6.38;;;;;;;26.98;57.08;98837.13;5013234;28;20262;-88
2023/07/19 02:24:13;;;;;;;10.65;7.00;;;;;;;26.98;56.72;98829.06;5013206;28;20171;-88
2023/07/19 02:26:39;;;;;;;11.13;6.38;;;;;;;26.97;57.09;98828.22;5012906;28;20191;-88
2023/07/19 02:29:06;;;;;;;9.88;6.65;;;;;;;26.96;56.73;98837.34;5013021;28;20207;-88
2023/07/19 02:31:31;;;;;;;9.95;6.05;;;;;;;26.94;56.63;98833.19;5013680;28;20171;-88
2023/07/19 02:33:58;;;;;;;9.15;6.18;;;;;;;26.94;56.52;98833.97;5013663;28;20182;-88
2023/07/19 02:36:24;;;;;;;11.95;6.50;;;;;;;26.81;57.37;98833.84;5013328;28;20691;-88
2023/07/19 02:38:50;;;;;;;9.40;6.53;;;;;;;26.73;57.64;98836.63;5014687;28;20258;-88
2023/07/19 02:41:16;;;;;;;10.70;6.83;;;;;;;26.63;57.67;98836.09;5017061;28;20207;-88
2023/07/19 02:43:43;;;;;;;11.38;5.97;;;;;;;26.49;58.57;98834.31;5016729;28;20183;-88
2023/07/19 02:46:09;;;;;;;13.13;6.53;;;;;;;26.46;58.90;98831.97;5016971;28;20198;-88
2023/07/19 02:48:36;;;;;;;14.63;6.38;;;;;;;26.45;58.75;98833.84;5016595;28;20254;-88
2023/07/19 02:51:03;;;;;;;12.98;7.15;;;;;;;26.44;58.57;98828.66;4999351;28;20190;-87
2023/07/19 02:53:28;;;;;;;13.82;6.78;;;;;;;26.36;58.58;98834.13;5016828;28;20546;-88
2023/07/19 02:55:55;;;;;;;10.65;6.22;;;;;;;26.29;59.33;98833.19;5016815;28;20175;-88
2023/07/19 02:58:23;;;;;;;14.60;6.85;;;;;;;26.36;59.16;98839.50;5016709;28;20229;-88
2023/07/19 03:00:53;;;;;;;14.05;7.38;;;;;;;26.38;58.93;98842.84;5006872;28;20184;-88
2023/07/19 03:03:20;;;;;;;11.13;7.03;;;;;;;26.44;58.83;98836.72;4997045;28;20160;-88
2023/07/19 03:05:47;;;;;;;10.63;6.90;;;;;;;26.48;59.17;98838.00;4994860;28;20270;-88
2023/07/19 03:08:12;;;;;;;10.68;6.85;;;;;;;26.48;59.17;98832.63;4999383;28;20646;-88
2023/07/19 03:10:39;;;;;;;13.30;7.10;;;;;;;26.51;59.00;98833.09;5016169;28;20214;-88
2023/07/19 03:13:06;;;;;;;10.88;6.60;;;;;;;26.48;58.82;98827.25;5016182;28;20647;-88
2023/07/19 03:15:33;;;;;;;14.38;7.03;;;;;;;26.49;58.76;98826.22;5004894;28;20318;-88
2023/07/19 03:18:03;;;;;;;11.80;6.97;;;;;;;26.43;59.54;98826.97;4992054;28;20247;-88
2023/07/19 03:20:31;;;;;;;11.13;6.90;;;;;;;26.29;59.96;98833.19;4977119;28;20183;-88
2023/07/19 03:22:58;;;;;;;13.60;7.15;;;;;;;26.22;60.33;98825.06;4977003;28;20180;-88
2023/07/19 03:25:25;;;;;;;12.17;6.37;;;;;;;26.28;60.08;98826.19;4977464;28;20184;-88
2023/07/19 03:27:51;;;;;;;11.43;7.30;;;;;;;26.31;60.09;98825.81;5014790;28;20286;-88
2023/07/19 03:30:17;;;;;;;12.15;7.07;;;;;;;26.33;60.11;98829.13;5015799;28;20321;-88
2023/07/19 03:32:43;;;;;;;11.00;7.40;;;;;;;26.35;60.33;98827.09;5014819;28;20198;-88
2023/07/19 03:35:09;;;;;;;13.67;7.30;;;;;;;26.43;60.23;98840.41;5015800;28;20179;-88
2023/07/19 03:37:36;;;;;;;12.80;6.95;;;;;;;26.46;59.68;98837.34;4998510;28;20175;-88
2023/07/19 03:40:04;;;;;;;16.30;7.97;;;;;;;26.49;59.73;98845.06;5015748;28;20613;-88
2023/07/19 03:42:31;;;;;;;15.07;8.57;;;;;;;26.48;59.99;98838.00;5015951;28;20696;-88
2023/07/19 03:44:56;;;;;;;11.95;7.80;;;;;;;26.56;59.64;98840.56;5015593;28;20191;-88
2023/07/19 03:47:25;;;;;;;15.97;6.97;;;;;;;26.64;59.10;98843.16;4998202;28;20203;-88
2023/07/19 03:49:51;;;;;;;15.93;7.53;;;;;;;26.65;59.22;98845.63;5014576;28;20202;-88
2023/07/19 03:52:17;;;;;;;15.07;7.75;;;;;;;26.64;59.49;98853.91;5015552;28;20182;-88
2023/07/19 03:54:42;;;;;;;13.85;8.20;;;;;;;26.58;59.49;98851.97;5015434;28;20683;-88
2023/07/19 03:57:09;;;;;;;9.57;5.93;;;;;;;26.62;59.84;98851.41;5015002;28;20179;-88
2023/07/19 03:59:36;;;;;;;14.35;7.68;;;;;;;26.66;59.23;98852.69;4997983;28;20590;-88
2023/07/19 04:02:03;;;;;;;14.70;7.72;;;;;;;26.72;58.53;98853.78;5014472;28;20194;-88
2023/07/19 04:04:29;;;;;;;13.15;6.93;;;;;;;26.80;58.47;98845.66;5015293;28;20190;-87
2023/07/19 04:06:55;;;;;;;14.98;7.32;;;;;;;26.86;57.92;98849.44;4996401;28;20253;-87
2023/07/19 04:09:21;;;;;;;13.57;7.25;;;;;;;26.95;57.92;98850.97;5014859;28;20175;-87
2023/07/19 04:11:46;;;;;;;10.35;7.22;;;;;;;27.00;57.58;98843.97;5015278;28;20175;-87
2023/07/19 04:14:12;;;;;;;11.77;7.18;;;;;;;27.06;57.36;98843.22;5015081;28;20175;-87
2023/07/19 04:16:37;;;;;;;9.88;6.10;;;;;;;27.08;57.22;98840.31;5015068;28;20182;-87
2023/07/19 04:19:03;;;;;;;13.90;7.68;;;;;;;27.11;56.57;98839.94;5014834;28;20197;-87
2023/07/19 04:21:28;;;;;;;13.00;6.80;;;;;;;27.14;57.00;98845.78;5014614;28;20222;-87
2023/07/19 04:23:53;;;;;;;10.43;6.85;;;;;;;27.20;56.83;98836.91;5014881;28;20632;-88
2023/07/19 04:26:19;;;;;;;14.32;6.50;;;;;;;27.24;56.61;98840.06;5014886;28;20525;-87
2023/07/19 04:28:44;;;;;;;10.52;6.35;;;;;;;27.26;56.35;98835.31;4997442;28;20576;-87
2023/07/19 04:31:10;;;;;;;8.23;6.00;;;;;;;27.33;56.40;98849.69;5009141;28;20545;-87
2023/07/19 04:33:38;;;;;;;12.75;6.78;;;;;;;27.38;57.36;98839.16;5015044;28;20222;-87
2023/07/19 04:36:13;;;;;;;10.90;6.57;;;;;;;27.49;56.42;98837.84;5015170;28;20183;-87
2023/07/19 04:38:39;;;;;;;12.30;6.97;;;;;;;27.59;56.15;98838.31;5013758;28;20530;-88
2023/07/19 04:41:05;;;;;;;10.90;6.40;;;;;;;27.65;56.23;98837.53;5014543;28;20240;-87
2023/07/19 04:43:31;;;;;;;10.77;5.85;;;;;;;27.69;56.87;98834.25;5014581;28;20529;-87
2023/07/19 04:45:56;;;;;;;17.80;7.35;;;;;;;27.76;56.13;98824.34;5014763;28;20225;-87
2023/07/19 04:48:21;;;;;;;12.00;7.18;;;;;;;27.83;56.15;98824.41;5014410;28;20195;-87
2023/07/19 04:50:54;;;;;;;15.52;6.53;;;;;;;27.92;55.88;98825.91;5014428;28;20186;-88
2023/07/19 04:53:21;;;;;;;10.20;6.40;;;;;;;28.02;56.06;98829.09;5014698;28;20178;-88
2023/07/19 04:55:46;;;;;;;14.13;7.15;;;;;;;28.12;55.93;98823.38;5014030;28;20240;-87
2023/07/19 04:58:12;;;;;;;10.00;6.75;;;;;;;28.23;55.80;98822.78;5014248;28;20656;-87
2023/07/19 05:00:38;;;;;;;11.68;6.28;;;;;;;28.35;55.21;98824.72;5014783;28;20258;-87
2023/07/19 05:03:04;;;;;;;21.85;6.78;;;;;;;28.52;55.09;98827.88;5013966;28;20269;-87
2023/07/19 05:05:29;;;;;;;9.70;6.70;;;;;;;28.61;55.05;98835.63;4999162;28;20218;-88
2023/07/19 05:07:55;;;;;;;10.10;6.40;;;;;;;28.71;55.13;98829.00;5012623;28;20203;-87
2023/07/19 05:10:21;;;;;;;12.30;5.70;;;;;;;28.76;55.09;98838.16;5014635;28;20175;-87
2023/07/19 05:12:47;;;;;;;12.15;5.20;;;;;;;28.83;54.58;98830.06;5014012;28;20202;-87
2023/07/19 05:15:12;;;;;;;9.13;4.78;;;;;;;29.11;53.12;98836.16;5014002;28;20175;-87
2023/07/19 05:17:38;;;;;;;7.85;4.20;;;;;;;29.21;51.82;98833.91;5014105;28;20601;-87
2023/07/19 05:20:05;;;;;;;8.75;3.95;;;;;;;29.48;48.20;98829.34;5014255;28;20170;-87
2023/07/19 05:22:31;;;;;;;6.32;3.70;;;;;;;29.65;47.98;98823.31;5013905;28;20572;-87
2023/07/19 05:24:57;;;;;;;8.02;3.13;;;;;;;29.91;48.05;98821.59;5013785;28;20185;-87
2023/07/19 05:27:23;;;;;;;7.50;3.88;;;;;;;30.19;46.25;98820.28;5013296;28;20617;-87
2023/07/19 05:29:48;;;;;;;5.30;2.75;;;;;;;30.39;45.23;98818.38;5014074;28;20183;-87
2023/07/19 05:32:14;;;;;;;10.75;3.92;;;;;;;30.68;44.89;98829.69;4996418;28;20206;-87
2023/07/19 05:34:39;;;;;;;7.93;3.47;;;;;;;30.76;44.24;98824.84;5013642;28;20171;-87
2023/07/19 05:37:06;;;;;;;6.07;3.13;;;;;;;31.02;44.34;98830.13;5013524;28;20207;-87
2023/07/19 05:39:33;;;;;;;6.35;3.22;;;;;;;31.17;43.52;98832.53;5013838;28;20189;-87
2023/07/19 05:41:59;;;;;;;8.15;3.60;;;;;;;31.11;44.14;98833.38;5013549;28;20295;-87
2023/07/19 05:44:25;;;;;;;7.18;3.67;;;;;;;31.24;42.97;98829.75;5013831;28;20644;-88
2023/07/19 05:46:52;;;;;;;6.75;3.03;;;;;;;31.29;42.61;98828.03;5013800;28;20181;-87
2023/07/19 05:49:18;;;;;;;6.53;2.83;;;;;;;31.36;42.91;98820.72;5012454;28;20185;-88
2023/07/19 05:51:43;;;;;;;6.97;3.15;;;;;;;31.46;43.21;98821.06;5013472;28;20170;-88
2023/07/19 05:54:10;;;;;;;5.40;3.00;;;;;;;31.52;43.76;98820.19;5013434;28;20175;-87
2023/07/19 05:56:36;;;;;;;5.40;3.22;;;;;;;31.62;42.58;98822.38;4996029;28;20191;-88
2023/07/19 05:59:01;;;;;;;6.40;3.58;;;;;;;31.62;43.35;98816.97;5013657;28;20171;-87
2023/07/19 06:01:27;;;;;;;9.32;4.03;;;;;;;31.59;42.61;98822.81;5013279;28;20266;-88
2023/07/19 06:03:52;;;;;;;5.82;3.22;;;;;;;31.63;43.01;98821.31;5013279;28;20167;-87
2023/07/19 06:06:18;;;;;;;5.78;3.53;;;;;;;31.76;42.62;98823.91;5012764;28;20195;-88
2023/07/19 06:08:43;;;;;;;10.35;3.20;;;;;;;31.83;44.26;98823.84;5013299;28;20558;-88
2023/07/19 06:11:09;;;;;;;10.27;3.88;;;;;;;31.96;42.04;98824.53;5013302;28;20199;-88
2023/07/19 06:13:34;;;;;;;6.07;3.05;;;;;;;32.01;42.53;98822.00;5014306;28;20622;-87
2023/07/19 06:16:00;;;;;;;6.95;3.35;;;;;;;32.22;42.16;98813.44;5017027;28;20648;-88
2023/07/19 06:18:25;;;;;;;5.05;3.20;;;;;;;32.32;42.95;98812.88;5000088;28;20229;-88
2023/07/19 06:20:51;;;;;;;6.80;3.13;;;;;;;32.43;43.58;98814.00;5017207;28;20202;-87
2023/07/19 06:23:16;;;;;;;7.95;2.97;;;;;;;32.48;43.83;98811.44;5017140;28;20637;-88
2023/07/19 06:25:42;;;;;;;6.03;3.47;;;;;;;32.61;43.04;98808.56;5017133;28;20247;-88
2023/07/19 06:28:08;;;;;;;6.43;3.42;;;;;;;32.78;39.72;98813.13;5016633;28;20195;-88
2023/07/19 06:30:33;;;;;;;5.32;2.85;;;;;;;32.71;40.08;98811.56;5017024;28;20628;-87
2023/07/19 06:32:59;;;;;;;6.80;2.60;;;;;;;32.60;39.34;98812.38;5016983;28;20607;-89
2023/07/19 06:35:24;;;;;;;6.90;2.63;;;;;;;32.80;40.39;98815.63;5016948;28;20190;-88
2023/07/19 06:37:50;;;;;;;5.25;3.30;;;;;;;33.08;38.63;98807.69;5016807;28;20519;-88
2023/07/19 06:40:15;;;;;;;5.32;2.95;;;;;;;33.10;39.36;98808.28;5016586;28;20189;-87
2023/07/19 06:42:44;;;;;;;6.68;2.53;;;;;;;33.26;38.54;98813.06;5016756;28;20171;-87
2023/07/19 06:45:10;;;;;;;5.40;3.00;;;;;;;33.47;38.89;98810.81;5016739;28;20236;-88
2023/07/19 06:47:36;;;;;;;5.75;2.90;;;;;;;33.65;38.42;98808.06;4999546;28;20556;-88
2023/07/19 06:50:02;;;;;;;7.20;3.40;;;;;;;33.94;38.20;98807.06;4998616;28;20183;-88
2023/07/19 06:52:27;;;;;;;6.68;3.35;;;;;;;34.17;37.48;98806.25;4996984;28;20179;-88
2023/07/19 06:54:53;;;;;;;4.88;2.97;;;;;;;34.36;35.83;98808.53;4995798;28;20183;-87
2023/07/19 06:57:21;;;;;;;6.95;2.72;;;;;;;34.55;37.09;98793.72;4980103;28;20207;-88
2023/07/19 06:59:49;;;;;;;6.97;3.03;;;;;;;34.78;35.20;98797.41;4995929;28;20179;-88
2023/07/19 07:02:18;;;;;;;5.82;3.28;;;;;;;35.03;34.45;98806.03;4995725;28;20265;-88
2023/07/19 07:04:44;;;;;;;4.50;2.95;;;;;;;34.98;35.83;98795.91;4996223;28;20172;-88
2023/07/19 07:07:14;;;;;;;4.47;2.92;;;;;;;35.29;33.94;98790.97;4996581;28;20168;-89
2023/07/19 07:09:42;;;;;;;6.22;2.80;;;;;;;35.57;33.46;98802.66;4985275;28;20631;-88
2023/07/19 07:12:09;;;;;;;5.00;2.75;;;;;;;35.77;33.91;98802.13;5016493;28;20175;-89
2023/07/19 07:14:35;;;;;;;8.07;3.03;;;;;;;35.94;32.93;98796.63;5016500;28;20179;-89
2023/07/19 07:17:02;;;;;;;5.50;3.22;;;;;;;36.07;33.97;98796.28;5016024;28;20182;-89
2023/07/19 07:19:28;;;;;;;5.60;2.85;;;;;;;36.19;34.23;98794.28;5016017;28;20182;-88
2023/07/19 07:21:55;;;;;;;5.93;3.33;;;;;;;36.34;32.16;98797.19;5015610;28;20198;-89
2023/07/19 07:24:21;;;;;;;4.82;2.92;;;;;;;36.49;32.25;98793.84;5016617;28;20609;-89
2023/07/19 07:26:48;;;;;;;4.50;3.03;;;;;;;36.61;32.28;98787.16;5014377;28;20210;-88
2023/07/19 07:29:15;;;;;;;4.95;2.88;;;;;;;36.84;32.53;98786.88;4998421;28;21768;-89
2023/07/19 07:31:42;;;;;;;7.70;3.47;;;;;;;37.00;33.80;98790.59;5013781;28;20183;-89
2023/07/19 07:34:09;;;;;;;4.97;3.00;;;;;;;37.28;31.56;98787.56;5015764;28;20167;-89
2023/07/19 07:36:36;;;;;;;4.85;3.13;;;;;;;37.48;31.37;98782.25;5012962;28;20175;-88
2023/07/19 07:39:02;;;;;;;5.93;3.00;;;;;;;37.61;31.89;98783.72;4998466;28;20176;-89
2023/07/19 07:41:31;;;;;;;5.55;3.17;;;;;;;37.76;31.14;98778.34;5015606;28;20179;-89
2023/07/19 07:43:58;;;;;;;7.90;3.17;;;;;;;37.99;29.86;98779.88;5016207;28;20182;-89
2023/07/19 07:46:27;;;;;;;5.70;3.10;;;;;;;38.04;30.03;98780.72;5016172;28;20187;-89
2023/07/19 07:48:54;;;;;;;6.55;2.78;;;;;;;38.22;30.35;98775.84;5015523;28;20197;-89
2023/07/19 07:51:21;;;;;;;5.93;2.90;;;;;;;38.09;29.75;98775.28;5015671;28;20552;-88
2023/07/19 07:53:47;;;;;;;4.05;2.40;;;;;;;38.17;30.92;98773.09;5015125;28;20187;-89
2023/07/19 07:56:13;;;;;;;4.95;2.58;;;;;;;38.23;29.91;98772.88;5015440;28;20262;-89
2023/07/19 07:58:39;;;;;;;7.88;2.78;;;;;;;38.49;29.53;98768.31;5015358;28;20167;-89
2023/07/19 08:01:04;;;;;;;7.57;3.40;;;;;;;38.67;29.88;98767.81;5010756;28;20203;-89
2023/07/19 08:03:31;;;;;;;5.88;2.97;;;;;;;38.70;28.38;98767.28;5014560;28;20609;-89
2023/07/19 08:05:57;;;;;;;4.03;2.42;;;;;;;38.67;30.72;98770.56;5015014;28;20260;-88
2023/07/19 08:08:24;;;;;;;5.50;2.92;;;;;;;38.96;29.62;98774.47;5014941;28;20286;-88
2023/07/19 08:10:52;;;;;;;10.45;3.00;;;;;;;38.85;30.73;98767.34;4997706;28;20175;-89
2023/07/19 08:13:18;;;;;;;6.50;2.97;;;;;;;39.03;30.62;98768.72;4997806;28;20175;-89
2023/07/19 08:15:46;;;;;;;5.63;2.85;;;;;;;39.21;29.17;98765.44;4997726;28;20190;-89
2023/07/19 08:18:12;;;;;;;5.40;2.97;;;;;;;39.27;27.12;98767.09;5014698;28;20223;-89
2023/07/19 08:20:38;;;;;;;6.07;2.70;;;;;;;39.09;29.80;98764.88;5013788;28;20561;-89
2023/07/19 08:23:06;;;;;;;10.15;3.25;;;;;;;38.72;29.15;98767.81;5014809;28;20248;-89
2023/07/19 08:25:34;;;;;;;4.78;2.85;;;;;;;38.75;31.39;98764.59;5014639;28;20245;-89
2023/07/19 08:28:01;;;;;;;4.68;3.13;;;;;;;38.71;27.86;98767.00;5013491;28;20278;-88
2023/07/19 08:30:29;;;;;;;5.95;2.75;;;;;;;38.52;30.02;98756.84;5007008;28;20186;-90
2023/07/19 08:32:57;;;;;;;7.13;2.78;;;;;;;38.66;30.07;98755.19;4996305;28;20295;-89
2023/07/19 08:35:23;;;;;;;4.82;2.90;;;;;;;38.76;28.93;98757.19;5005525;28;20176;-89
2023/07/19 08:37:50;;;;;;;5.13;3.17;;;;;;;38.74;29.74;98760.16;5013262;28;20245;-89
2023/07/19 08:40:19;;;;;;;3.67;2.40;;;;;;;38.85;30.27;98753.63;4997118;28;20190;-90
2023/07/19 08:42:49;;;;;;;6.25;3.00;;;;;;;39.41;29.49;98749.00;5014135;28;20278;-89
2023/07/19 08:45:17;;;;;;;5.60;3.10;;;;;;;39.78;29.95;98751.44;4991237;28;20637;-88
2023/07/19 08:54:43;;;;;;;4.93;2.80;;;;;;;40.46;27.50;98750.59;4916505;29;20241;-89
2023/07/19 08:57:10;;;;;;;6.45;3.15;;;;;;;40.35;27.59;98739.94;4916298;29;20182;-89
2023/07/19 08:59:37;;;;;;;7.22;3.13;;;;;;;40.57;26.99;98740.38;4900338;29;20194;-89
2023/07/19 09:02:05;;;;;;;6.03;3.10;;;;;;;40.93;25.36;98735.50;4912780;29;20281;-89
2023/07/19 09:04:32;;;;;;;4.93;3.10;;;;;;;41.00;26.23;98736.81;4897331;29;20202;-89
2023/07/19 09:07:06;;;;;;;4.28;2.83;;;;;;;40.92;27.56;98733.84;4881647;29;20210;-90
2023/07/19 09:09:34;;;;;;;6.13;2.95;;;;;;;40.46;26.87;98725.84;4896956;29;20199;-89
2023/07/19 09:12:11;;;;;;;5.43;2.80;;;;;;;40.72;26.81;98720.25;4896847;29;20199;-89
2023/07/19 09:14:37;;;;;;;4.03;2.63;;;;;;;40.82;26.36;98726.47;4897081;29;20198;-89
2023/07/19 09:17:03;;;;;;;5.15;2.83;;;;;;;40.96;27.01;98719.22;4886984;29;20685;-88
2023/07/19 09:19:29;;;;;;;6.80;2.63;;;;;;;41.09;26.40;98706.78;4899438;29;20313;-89
2023/07/19 09:21:57;;;;;;;5.10;2.67;;;;;;;41.30;24.87;98710.16;4906382;29;20198;-89
2023/07/19 09:24:24;;;;;;;5.00;2.72;;;;;;;40.97;24.42;98714.56;4906036;28;20183;-90
2023/07/19 09:27:00;;;;;;;5.00;2.55;;;;;;;41.19;25.02;98712.19;5003171;28;20210;-89
2023/07/19 09:29:30;;;;;;;4.32;2.60;;;;;;;41.09;25.13;98701.28;4997203;28;20207;-89
2023/07/19 09:32:01;;;;;;;4.20;2.60;;;;;;;41.10;26.19;98697.41;4986443;28;20262;-89
2023/07/19 09:34:40;;;;;;;5.38;2.97;;;;;;;41.33;24.96;98701.34;4994158;28;20199;-89
2023/07/19 09:37:07;;;;;;;4.85;2.70;;;;;;;41.36;26.54;98698.81;5007485;28;20186;-89
2023/07/19 09:39:41;;;;;;;4.65;2.45;;;;;;;41.21;23.96;98698.94;4992578;28;20195;-89
2023/07/19 09:42:08;;;;;;;7.78;2.83;;;;;;;41.39;26.60;98692.75;5009390;28;20202;-89
2023/07/19 09:44:36;;;;;;;4.57;2.97;;;;;;;41.60;25.38;98683.16;5012690;28;20183;-89
2023/07/19 09:47:08;;;;;;;4.20;2.40;;;;;;;41.77;25.14;98681.91;4971020;28;20295;-89
2023/07/19 09:49:40;;;;;;;6.55;2.90;;;;;;;41.61;24.10;98684.81;4998284;28;20183;-88
2023/07/19 09:52:17;;;;;;;7.75;3.20;;;;;;;41.83;25.34;98673.25;5011030;28;20636;-89
2023/07/19 09:54:45;;;;;;;6.63;2.53;;;;;;;41.52;23.57;98678.28;5011759;28;20190;-89
2023/07/19 09:57:12;;;;;;;4.75;2.20;;;;;;;41.71;23.41;98669.25;5012868;28;20175;-89
2023/07/19 09:59:46;;;;;;;4.05;2.05;;;;;;;41.83;23.24;98672.44;5012594;28;20652;-88
2023/07/19 10:02:14;;;;;;;4.22;2.20;;;;;;;41.64;22.35;98662.16;4985943;28;20183;-89
2023/07/19 10:04:42;;;;;;;3.85;2.35;;;;;;;41.54;23.05;98665.03;4978822;28;20641;-88
2023/07/19 10:07:08;;;;;;;5.63;2.63;;;;;;;41.22;23.76;98661.25;5003982;28;20179;-89
2023/07/19 10:09:40;;;;;;;6.25;2.42;;;;;;;41.05;23.05;98653.44;4993503;28;20391;-88
2023/07/19 10:12:18;;;;;;;5.38;2.53;;;;;;;41.37;23.96;98648.19;4980821;28;20183;-88
2023/07/19 10:15:07;;;;;;;4.18;2.40;;;;;;;41.85;23.00;98646.28;4978212;28;20203;-89
2023/07/19 10:17:54;;;;;;;4.78;2.78;;;;;;;41.59;23.66;98648.47;4959758;28;20203;-88
2023/07/19 10:20:33;;;;;;;4.75;2.70;;;;;;;42.02;23.34;98643.00;4982302;28;20210;-89
2023/07/19 10:23:02;;;;;;;10.65;2.55;;;;;;;41.46;22.52;98646.41;4976384;28;20208;-88
2023/07/19 10:25:32;;;;;;;5.07;2.40;;;;;;;41.62;23.41;98639.63;4976752;28;20267;-88
2023/07/19 10:28:08;;;;;;;3.67;2.17;;;;;;;41.93;23.59;98642.03;4978231;28;20295;-88
2023/07/19 10:30:53;;;;;;;5.47;2.38;;;;;;;41.64;22.48;98642.91;4981408;28;20192;-88
2023/07/19 10:33:38;;;;;;;4.20;2.50;;;;;;;42.04;22.58;98640.75;4976841;28;20191;-88
2023/07/19 10:36:05;;;;;;;7.20;2.75;;;;;;;42.17;22.60;98629.84;4961269;28;20650;-88
2023/07/19 10:38:31;;;;;;;3.90;2.17;;;;;;;42.43;22.17;98633.03;4977879;28;20642;-89
2023/07/19 10:40:59;;;;;;;5.95;2.15;;;;;;;42.54;22.35;98629.03;4983575;28;20351;-89
2023/07/19 10:43:29;;;;;;;4.25;2.38;;;;;;;42.20;22.79;98622.94;4976108;28;20184;-88
2023/07/19 10:45:56;;;;;;;4.38;2.38;;;;;;;42.05;22.93;98620.38;4978628;28;20184;-89
2023/07/19 10:48:29;;;;;;;5.55;2.65;;;;;;;41.73;24.25;98614.75;4983779;28;20203;-88
2023/07/19 10:50:59;;;;;;;5.80;2.60;;;;;;;41.76;23.66;98617.75;4982317;28;20191;-88
2023/07/19 10:53:25;;;;;;;4.47;2.50;;;;;;;42.01;23.89;98611.09;4986143;28;20184;-88
2023/07/19 10:55:54;;;;;;;4.50;2.47;;;;;;;42.08;23.51;98606.00;4981322;28;20267;-88
2023/07/19 10:58:21;;;;;;;3.58;1.90;;;;;;;41.96;22.96;98606.44;4979425;28;20192;-88
2023/07/19 11:00:47;;;;;;;3.55;2.22;;;;;;;42.13;23.24;98606.78;4989481;28;20285;-88
2023/07/19 11:03:14;;;;;;;3.80;2.35;;;;;;;41.65;22.69;98603.25;4984430;28;20242;-87
2023/07/19 11:05:47;;;;;;;6.80;2.22;;;;;;;41.74;23.27;98599.88;4984020;28;20184;-87
2023/07/19 11:08:23;;;;;;;3.65;2.08;;;;;;;41.85;24.05;98604.16;4985777;28;20200;-87
2023/07/19 11:10:49;;;;;;;4.03;2.70;;;;;;;41.60;23.61;98608.84;4982601;28;20530;-88
2023/07/19 11:13:17;;;;;;;5.30;2.42;;;;;;;41.60;24.26;98597.81;4997966;28;20183;-88
2023/07/19 11:15:47;;;;;;;4.30;2.70;;;;;;;41.57;23.13;98598.41;4998723;28;20190;-88
2023/07/19 11:18:12;;;;;;;3.70;2.30;;;;;;;41.70;23.95;98596.88;5015990;28;20198;-88
2023/07/19 11:20:39;;;;;;;4.13;2.53;;;;;;;42.22;23.00;98593.97;5016394;28;20171;-88
2023/07/19 11:23:08;;;;;;;6.15;2.63;;;;;;;42.47;23.54;98600.19;5014475;28;20171;-89
2023/07/19 11:25:34;;;;;;;3.75;2.30;;;;;;;42.79;23.66;98591.97;5015931;28;20175;-88
2023/07/19 11:28:00;;;;;;;3.80;2.28;;;;;;;43.02;21.48;98592.94;5015920;28;20198;-88
2023/07/19 11:30:38;;;;;;;4.18;2.40;;;;;;;43.36;20.28;98602.50;5015960;28;20173;-88
2023/07/19 11:33:06;;;;;;;4.43;2.50;;;;;;;43.40;20.27;98598.00;5016218;28;20159;-88
2023/07/19 11:35:32;;;;;;;4.53;2.35;;;;;;;43.33;20.24;98589.31;5015862;28;20635;-87
2023/07/19 11:37:57;;;;;;;5.88;2.55;;;;;;;43.43;19.96;98585.50;5015828;28;20199;-88